Time;durP1;ratioP1;P1;durP2;ratioP2;P2;SDS_P1;SDS_P2;PMS_P1;PMS_P2;Temp;Humidity;BMP_temperature;BMP_pressure;BME280_temperature;BME280_humidity;BME280_pressure;Samples;Min_cycle;Max_cycle;Signal;HPM_P1;HPM_P2
2023/08/10 00:00:50;;;;;;;2.40;1.05;;;;;;;26.41;43.94;98820.16;2088053;28;20247;-49
2023/08/10 00:01:51;;;;;;;1.17;1.00;;;;;;;26.43;43.54;98819.91;2088272;28;20495;-49
2023/08/10 00:02:53;;;;;;;1.48;0.82;;;;;;;26.44;43.55;98816.94;2091854;28;20110;-50
2023/08/10 00:03:54;;;;;;;4.50;1.38;;;;;;;26.45;43.98;98815.03;2092801;28;20099;-48
2023/08/10 00:04:56;;;;;;;1.70;0.88;;;;;;;26.45;43.89;98815.03;2089022;28;20048;-48
2023/08/10 00:05:57;;;;;;;2.33;1.05;;;;;;;26.45;43.60;98823.19;2093005;28;20044;-48
2023/08/10 00:06:57;;;;;;;2.60;1.35;;;;;;;26.45;43.59;98820.47;2089823;28;20484;-49
2023/08/10 00:08:01;;;;;;;1.88;0.95;;;;;;;26.46;43.53;98817.50;2088931;28;20113;-48
2023/08/10 00:09:02;;;;;;;3.80;0.98;;;;;;;26.42;43.76;98818.25;2090255;28;20053;-49
2023/08/10 00:10:08;;;;;;;2.72;1.75;;;;;;;26.43;43.85;98823.44;2090325;28;20050;-50
2023/08/10 00:11:09;;;;;;;2.55;1.02;;;;;;;26.43;43.94;98823.44;2089034;28;20052;-48
2023/08/10 00:12:11;;;;;;;1.58;1.08;;;;;;;26.44;43.97;98819.66;2089873;28;20300;-48
2023/08/10 00:13:12;;;;;;;2.80;1.05;;;;;;;26.41;43.61;98817.44;2088898;28;20175;-48
2023/08/10 00:14:14;;;;;;;3.00;1.20;;;;;;;26.47;43.71;98824.59;2086520;28;20123;-48
2023/08/10 00:15:15;;;;;;;2.33;0.90;;;;;;;26.47;43.58;98824.59;2085956;28;20068;-48
2023/08/10 00:16:16;;;;;;;3.40;1.25;;;;;;;26.47;43.50;98823.78;2091551;28;20374;-48
2023/08/10 00:17:18;;;;;;;2.88;1.02;;;;;;;26.45;43.96;98824.03;2090454;28;20072;-49
2023/08/10 00:18:20;;;;;;;1.77;0.93;;;;;;;26.47;43.89;98823.78;2090165;28;20439;-49
2023/08/10 00:19:21;;;;;;;1.38;0.80;;;;;;;26.46;43.52;98822.13;2090386;28;20131;-49
2023/08/10 00:20:21;;;;;;;1.63;0.82;;;;;;;26.45;43.68;98826.75;2092152;28;20075;-50
2023/08/10 00:21:24;;;;;;;1.42;1.10;;;;;;;26.45;43.82;98821.28;2089849;28;20396;-51
2023/08/10 00:22:25;;;;;;;3.67;1.25;;;;;;;26.47;43.98;98827.31;2089625;28;20079;-48
2023/08/10 00:23:29;;;;;;;2.10;0.82;;;;;;;26.43;43.81;98822.63;2090365;28;20048;-49
2023/08/10 00:24:29;;;;;;;3.40;1.38;;;;;;;26.45;43.62;98825.91;2084560;28;20076;-50
2023/08/10 00:25:31;;;;;;;1.25;0.80;;;;;;;26.44;43.70;98830.53;2089565;28;20051;-51
2023/08/10 00:26:33;;;;;;;1.13;0.70;;;;;;;26.44;43.78;98825.09;2088475;28;20074;-49
2023/08/10 00:27:38;;;;;;;1.67;0.93;;;;;;;26.43;44.25;98825.34;2088792;28;20048;-49
2023/08/10 00:28:39;;;;;;;1.13;0.85;;;;;;;26.44;43.85;98821.53;2088318;28;20055;-49
2023/08/10 00:29:41;;;;;;;1.50;0.80;;;;;;;26.42;43.67;98827.25;2090053;28;20094;-49
2023/08/10 00:30:41;;;;;;;1.60;0.85;;;;;;;26.45;43.73;98824.03;2092061;28;20056;-49
2023/08/10 00:31:43;;;;;;;1.33;0.90;;;;;;;26.45;44.10;98821.28;2090022;28;21464;-49
2023/08/10 00:32:44;;;;;;;3.58;1.08;;;;;;;26.45;43.90;98821.28;2093073;28;20060;-50
2023/08/10 00:33:46;;;;;;;4.30;1.17;;;;;;;26.47;44.20;98824.59;2087257;28;20052;-49
2023/08/10 00:34:48;;;;;;;1.33;0.70;;;;;;;26.46;43.81;98820.22;2083459;28;20057;-49
2023/08/10 00:35:49;;;;;;;2.33;1.33;;;;;;;26.42;44.08;98821.81;2081177;28;20507;-51
2023/08/10 00:36:50;;;;;;;1.90;0.80;;;;;;;26.44;43.81;98825.09;2083515;28;20045;-49
2023/08/10 00:37:52;;;;;;;0.88;0.73;;;;;;;26.44;44.06;98819.66;2082610;28;20042;-48
2023/08/10 00:38:54;;;;;;;2.45;1.10;;;;;;;26.44;43.85;98816.09;2087200;28;20113;-49
2023/08/10 00:39:56;;;;;;;1.85;0.82;;;;;;;26.42;44.30;98816.38;2087750;28;20056;-48
2023/08/10 00:40:57;;;;;;;14.27;2.58;;;;;;;26.42;43.97;98819.09;2082833;28;20071;-49
2023/08/10 00:41:59;;;;;;;2.80;1.08;;;;;;;26.43;44.29;98817.19;2090221;28;20557;-48
2023/08/10 00:43:01;;;;;;;2.33;1.02;;;;;;;26.45;43.95;98813.13;2089513;28;20048;-52
2023/08/10 00:44:03;;;;;;;1.92;1.30;;;;;;;26.42;44.00;98816.38;2090462;28;20498;-48
2023/08/10 00:45:05;;;;;;;2.92;1.60;;;;;;;26.43;44.23;98818.00;2092378;28;20461;-49
2023/08/10 00:46:08;;;;;;;1.60;1.00;;;;;;;26.43;43.90;98817.19;2089787;28;20144;-50
2023/08/10 00:47:10;;;;;;;1.70;1.17;;;;;;;26.43;43.91;98812.56;2091197;28;20474;-51
2023/08/10 00:48:12;;;;;;;2.33;1.52;;;;;;;26.41;44.30;98809.28;2086609;28;20040;-51
2023/08/10 00:49:12;;;;;;;4.20;1.05;;;;;;;26.44;44.21;98816.09;2090158;28;20055;-51
2023/08/10 00:50:14;;;;;;;0.93;0.70;;;;;;;26.44;44.00;98818.81;2090013;28;20194;-51
2023/08/10 00:51:15;;;;;;;3.05;1.00;;;;;;;26.42;44.15;98819.09;2089119;28;20075;-51
2023/08/10 00:52:16;;;;;;;1.63;0.70;;;;;;;26.43;44.07;98817.19;2089099;28;21293;-49
2023/08/10 00:53:19;;;;;;;1.70;1.08;;;;;;;26.45;44.03;98815.03;2090917;28;21541;-49
2023/08/10 00:54:21;;;;;;;1.90;0.95;;;;;;;26.45;44.30;98817.75;2090360;28;20083;-49
2023/08/10 00:55:23;;;;;;;1.85;1.23;;;;;;;26.44;44.42;98819.66;2091506;28;20067;-49
2023/08/10 00:56:24;;;;;;;1.33;0.80;;;;;;;26.43;44.41;98823.44;2090489;28;21523;-48
2023/08/10 00:57:26;;;;;;;7.47;1.33;;;;;;;26.46;44.11;98819.41;2088000;28;20060;-50
2023/08/10 00:58:30;;;;;;;1.48;0.80;;;;;;;26.43;44.29;98818.00;2080142;28;20056;-49
2023/08/10 00:59:33;;;;;;;2.25;0.75;;;;;;;26.45;44.51;98818.56;2088349;28;20044;-49
2023/08/10 01:00:35;;;;;;;1.75;1.10;;;;;;;26.46;44.86;98816.69;2091209;28;20068;-49
2023/08/10 01:01:36;;;;;;;2.17;0.90;;;;;;;26.45;44.66;98815.84;2088440;28;20055;-49
2023/08/10 01:02:38;;;;;;;2.47;0.68;;;;;;;26.43;45.00;98811.75;2090704;28;20049;-49
2023/08/10 01:03:40;;;;;;;1.63;0.90;;;;;;;26.43;44.82;98812.56;2090289;28;20056;-48
2023/08/10 01:04:43;;;;;;;3.30;1.33;;;;;;;26.43;44.89;98814.47;2091749;28;20048;-50
2023/08/10 01:05:51;;;;;;;0.52;0.52;;;;;;;26.45;45.03;98810.41;2088691;28;20079;-49
2023/08/10 01:07:04;;;;;;;1.30;0.65;;;;;;;26.43;45.03;98815.28;2092651;28;20132;-49
2023/08/10 01:08:11;;;;;;;1.50;0.80;;;;;;;26.40;45.14;98809.53;2088778;28;20040;-50
2023/08/10 01:09:20;;;;;;;2.45;1.15;;;;;;;26.40;45.03;98813.06;2089519;28;20561;-51
2023/08/10 01:10:31;;;;;;;2.50;0.93;;;;;;;26.41;44.88;98808.44;2089595;28;20044;-49
2023/08/10 01:11:39;;;;;;;3.45;1.13;;;;;;;26.41;44.94;98812.00;2087563;28;20107;-50
2023/08/10 01:12:49;;;;;;;1.25;1.00;;;;;;;26.40;44.72;98815.78;2090869;28;20056;-53
2023/08/10 01:13:58;;;;;;;3.70;1.10;;;;;;;26.41;44.89;98812.00;2081020;28;20063;-48
2023/08/10 01:15:06;;;;;;;1.75;1.10;;;;;;;26.40;44.97;98807.63;2085445;28;20066;-52
2023/08/10 01:16:10;;;;;;;2.80;0.75;;;;;;;26.38;45.13;98817.91;2089495;28;20037;-50
2023/08/10 01:17:18;;;;;;;1.38;0.95;;;;;;;26.43;44.58;98804.41;2089108;28;20037;-49
2023/08/10 01:18:26;;;;;;;1.15;0.70;;;;;;;26.40;45.14;98812.25;2089102;28;20055;-49
2023/08/10 01:19:34;;;;;;;4.40;1.85;;;;;;;26.40;44.75;98812.25;2090609;28;21285;-50
2023/08/10 01:20:37;;;;;;;2.28;0.98;;;;;;;26.37;45.08;98799.97;2090710;28;20064;-49
2023/08/10 01:21:51;;;;;;;1.17;0.85;;;;;;;26.40;44.75;98804.09;2091205;28;20056;-53
2023/08/10 01:23:00;;;;;;;2.38;1.17;;;;;;;26.38;45.08;98815.19;2092024;28;20052;-51
2023/08/10 01:24:11;;;;;;;1.30;0.85;;;;;;;26.39;45.06;98811.44;2086952;28;20379;-50
2023/08/10 01:25:15;;;;;;;1.70;0.93;;;;;;;26.39;44.79;98806.00;2088464;28;20048;-49
2023/08/10 01:26:17;;;;;;;4.25;1.23;;;;;;;26.38;45.22;98808.94;2092850;28;20041;-50
2023/08/10 01:27:19;;;;;;;0.95;0.65;;;;;;;26.38;45.03;98812.47;2090085;28;20040;-50
2023/08/10 01:28:22;;;;;;;1.92;0.80;;;;;;;26.40;45.17;98810.34;2088095;28;20083;-49
2023/08/10 01:29:24;;;;;;;1.33;0.75;;;;;;;26.38;44.74;98811.66;2089458;28;20555;-48
2023/08/10 01:30:26;;;;;;;1.98;0.77;;;;;;;26.42;45.00;98816.38;2090026;28;20093;-48
2023/08/10 01:31:27;;;;;;;2.47;0.85;;;;;;;26.41;45.05;98812.00;2083567;28;20340;-49
2023/08/10 01:32:29;;;;;;;1.35;0.80;;;;;;;26.39;44.98;98811.44;2087220;28;20048;-48
2023/08/10 01:33:31;;;;;;;1.33;1.08;;;;;;;26.41;45.24;98816.59;2088063;28;20080;-48
2023/08/10 01:34:32;;;;;;;2.08;0.77;;;;;;;26.39;45.21;98816.06;2089905;28;20060;-50
2023/08/10 01:35:33;;;;;;;1.08;0.75;;;;;;;26.38;44.98;98812.47;2091142;28;20041;-50
2023/08/10 01:36:34;;;;;;;2.78;1.15;;;;;;;26.39;45.21;98816.06;2089826;28;20668;-48
2023/08/10 01:37:36;;;;;;;2.53;1.30;;;;;;;26.37;45.00;98821.72;2091173;28;20052;-49
2023/08/10 01:38:37;;;;;;;3.67;1.08;;;;;;;26.38;45.31;98819.81;2090414;28;21354;-49
2023/08/10 01:39:39;;;;;;;2.72;0.90;;;;;;;26.37;44.78;98819.00;2088856;28;20053;-49
2023/08/10 01:40:41;;;;;;;2.40;1.23;;;;;;;26.38;45.06;98815.19;2088936;28;20052;-50
2023/08/10 01:41:43;;;;;;;1.13;0.85;;;;;;;26.40;45.17;98818.50;2089727;28;20041;-49
2023/08/10 01:42:44;;;;;;;2.08;0.82;;;;;;;26.36;45.16;98820.09;2088017;28;20462;-51
2023/08/10 01:43:46;;;;;;;2.55;0.85;;;;;;;26.36;44.83;98817.38;2090310;28;20680;-49
2023/08/10 01:44:47;;;;;;;3.75;0.65;;;;;;;26.36;45.28;98814.66;2089178;28;20601;-48
2023/08/10 01:45:55;;;;;;;3.22;0.75;;;;;;;26.37;44.86;98818.19;2085511;28;20045;-49
2023/08/10 01:47:00;;;;;;;5.97;0.65;;;;;;;26.37;45.16;98824.44;2080692;28;20109;-51
2023/08/10 01:48:09;;;;;;;2.70;1.00;;;;;;;26.38;45.05;98825.25;2080172;28;20048;-49
2023/08/10 01:49:12;;;;;;;1.60;0.90;;;;;;;26.37;45.05;98827.16;2078788;28;20507;-52
2023/08/10 01:50:17;;;;;;;1.58;1.00;;;;;;;26.36;44.76;98836.41;2073340;28;20072;-52
2023/08/10 01:51:20;;;;;;;3.75;0.88;;;;;;;26.35;45.16;98826.59;2081260;28;20084;-49
2023/08/10 01:52:26;;;;;;;2.75;1.27;;;;;;;26.37;44.86;98829.06;2087859;28;20669;-49
2023/08/10 01:53:30;;;;;;;3.50;1.25;;;;;;;26.35;44.78;98825.75;2080177;28;20049;-48
2023/08/10 01:54:33;;;;;;;3.30;0.98;;;;;;;26.38;44.76;98830.69;2082642;28;20521;-49
2023/08/10 01:55:34;;;;;;;1.00;0.68;;;;;;;26.35;44.92;98834.75;2080890;28;20083;-50
2023/08/10 01:56:37;;;;;;;1.30;0.82;;;;;;;26.36;45.15;98833.69;2082276;28;20046;-50
2023/08/10 01:57:39;;;;;;;2.33;0.80;;;;;;;26.37;44.77;98835.31;2082002;28;20527;-49
2023/08/10 01:58:41;;;;;;;1.67;1.35;;;;;;;26.35;44.73;98826.59;2082096;28;20063;-50
2023/08/10 01:59:42;;;;;;;2.17;0.95;;;;;;;26.36;44.94;98830.97;2081518;28;20053;-51
2023/08/10 02:00:44;;;;;;;1.33;1.20;;;;;;;26.37;44.81;98829.06;2082742;28;20075;-49
2023/08/10 02:01:44;;;;;;;0.88;0.60;;;;;;;26.37;44.67;98829.88;2081139;28;20053;-50
2023/08/10 02:02:47;;;;;;;1.05;0.82;;;;;;;26.36;44.78;98839.13;2082693;28;20434;-50
2023/08/10 02:03:48;;;;;;;1.05;0.70;;;;;;;26.35;44.75;98834.75;2083358;28;20067;-48
2023/08/10 02:04:49;;;;;;;2.58;1.52;;;;;;;26.37;44.85;98831.78;2084883;28;20110;-48
2023/08/10 02:05:51;;;;;;;2.03;1.08;;;;;;;26.36;44.92;98832.88;2088399;28;20139;-49
2023/08/10 02:06:52;;;;;;;2.13;0.75;;;;;;;26.36;45.26;98830.97;2089828;28;20318;-48
2023/08/10 02:07:53;;;;;;;2.35;1.15;;;;;;;26.36;45.24;98832.88;2084031;28;20301;-49
2023/08/10 02:08:54;;;;;;;2.65;1.30;;;;;;;26.36;44.94;98833.69;2091167;28;20056;-50
2023/08/10 02:09:56;;;;;;;2.50;0.90;;;;;;;26.36;45.17;98828.25;2088324;28;20191;-49
2023/08/10 02:10:57;;;;;;;4.28;1.13;;;;;;;26.34;44.69;98838.53;2089642;28;20053;-48
2023/08/10 02:12:00;;;;;;;1.92;0.80;;;;;;;26.39;44.95;98835.09;2091442;28;20562;-48
2023/08/10 02:13:01;;;;;;;0.80;0.80;;;;;;;26.37;44.82;98840.75;2089790;28;20044;-50
2023/08/10 02:14:03;;;;;;;2.50;1.00;;;;;;;26.35;44.72;98832.03;2090421;28;20477;-49
2023/08/10 02:15:05;;;;;;;2.28;1.10;;;;;;;26.35;45.01;98837.47;2093132;28;20194;-50
2023/08/10 02:16:07;;;;;;;2.17;0.70;;;;;;;26.38;44.67;98836.13;2089689;28;20049;-50
2023/08/10 02:17:08;;;;;;;1.98;0.60;;;;;;;26.35;44.65;98834.75;2090554;28;20055;-49
2023/08/10 02:18:12;;;;;;;1.58;1.13;;;;;;;26.36;45.00;98833.69;2089945;28;20422;-49
2023/08/10 02:19:13;;;;;;;3.08;0.63;;;;;;;26.34;44.71;98830.38;2088989;28;20784;-48
2023/08/10 02:20:15;;;;;;;2.97;0.77;;;;;;;26.33;45.13;98828.75;2086266;28;20106;-51
2023/08/10 02:21:16;;;;;;;1.65;0.90;;;;;;;26.33;45.14;98828.75;2088778;28;20048;-49
2023/08/10 02:22:18;;;;;;;1.42;1.00;;;;;;;26.34;44.61;98830.38;2088806;28;20052;-50
2023/08/10 02:23:19;;;;;;;1.08;0.80;;;;;;;26.36;45.13;98836.41;2087002;28;20053;-49
2023/08/10 02:24:21;;;;;;;3.40;0.82;;;;;;;26.34;45.20;98830.38;2085217;28;20348;-50
2023/08/10 02:25:22;;;;;;;1.67;0.70;;;;;;;26.34;44.78;98835.81;2088573;28;20091;-49
2023/08/10 02:26:24;;;;;;;1.27;0.93;;;;;;;26.35;45.20;98833.91;2088697;28;20144;-49
2023/08/10 02:27:26;;;;;;;1.55;0.93;;;;;;;26.34;45.06;98830.38;2090574;28;20144;-48
2023/08/10 02:28:28;;;;;;;2.05;1.08;;;;;;;26.36;44.64;98839.13;2089694;28;20048;-49
2023/08/10 02:29:29;;;;;;;2.60;0.75;;;;;;;26.34;45.08;98830.38;2089454;28;20329;-53
2023/08/10 02:30:31;;;;;;;2.47;1.30;;;;;;;26.32;44.84;98829.81;2089016;28;20119;-49
2023/08/10 02:31:32;;;;;;;1.67;0.98;;;;;;;26.35;45.28;98839.38;2089253;28;20090;-51
2023/08/10 02:32:34;;;;;;;2.38;0.85;;;;;;;26.31;45.33;98833.59;2089099;28;20037;-49
2023/08/10 02:33:34;;;;;;;4.78;1.33;;;;;;;26.31;44.89;98836.31;2090812;28;20075;-50
2023/08/10 02:34:35;;;;;;;1.88;1.08;;;;;;;26.34;44.85;98840.44;2091818;28;20048;-48
2023/08/10 02:35:37;;;;;;;1.17;0.80;;;;;;;26.33;45.02;98834.19;2089432;28;20120;-48
2023/08/10 02:36:39;;;;;;;1.20;0.88;;;;;;;26.34;45.29;98833.09;2089669;28;21733;-52
2023/08/10 02:37:40;;;;;;;6.45;1.05;;;;;;;26.33;45.31;98836.91;2091174;28;20515;-50
2023/08/10 02:38:42;;;;;;;3.13;1.38;;;;;;;26.33;44.95;98828.75;2089772;28;20052;-49
2023/08/10 02:39:43;;;;;;;1.73;0.80;;;;;;;26.30;45.16;98823.81;2089178;28;20045;-51
2023/08/10 02:40:45;;;;;;;3.05;1.20;;;;;;;26.32;45.39;98837.97;2084813;28;20052;-50
2023/08/10 02:41:46;;;;;;;1.60;0.93;;;;;;;26.30;45.04;98826.53;2089288;28;20200;-48
2023/08/10 02:42:49;;;;;;;0.70;0.70;;;;;;;26.34;45.42;98835.00;2089207;28;20055;-49
2023/08/10 02:43:50;;;;;;;1.90;0.93;;;;;;;26.34;45.06;98824.94;2084261;28;20045;-49
2023/08/10 02:44:52;;;;;;;1.35;0.95;;;;;;;26.32;44.86;98823.53;2087864;28;20048;-49
2023/08/10 02:45:53;;;;;;;1.65;0.80;;;;;;;26.31;45.03;98825.44;2089886;28;20045;-48
2023/08/10 02:46:55;;;;;;;1.27;0.80;;;;;;;26.33;45.07;98830.63;2090846;28;20040;-49
2023/08/10 02:47:56;;;;;;;1.02;0.70;;;;;;;26.32;45.29;98821.66;2089585;28;20166;-49
2023/08/10 02:48:58;;;;;;;1.13;0.77;;;;;;;26.31;44.94;98828.16;2088447;28;20113;-51
2023/08/10 02:49:58;;;;;;;3.75;0.90;;;;;;;26.34;44.92;98827.66;2089020;28;20109;-50
2023/08/10 02:51:00;;;;;;;1.65;0.80;;;;;;;26.33;44.94;98819.75;2089552;28;20056;-49
2023/08/10 02:52:01;;;;;;;1.10;0.90;;;;;;;26.31;44.99;98820.00;2088557;28;20076;-49
2023/08/10 02:53:03;;;;;;;1.05;0.70;;;;;;;26.34;44.95;98827.66;2087939;28;20045;-48
2023/08/10 02:54:05;;;;;;;2.05;0.77;;;;;;;26.32;45.51;98826.28;2089141;28;20045;-48
2023/08/10 02:55:07;;;;;;;2.17;1.00;;;;;;;26.30;45.45;98819.19;2087874;28;20045;-49
2023/08/10 02:56:09;;;;;;;1.42;0.80;;;;;;;26.32;45.49;98815.38;2088741;28;20442;-50
2023/08/10 02:57:10;;;;;;;2.28;0.82;;;;;;;26.30;45.23;98819.19;2088299;28;20530;-49
2023/08/10 02:58:13;;;;;;;2.00;1.42;;;;;;;26.34;45.00;98818.69;2088296;28;20135;-49
2023/08/10 02:59:14;;;;;;;3.58;1.20;;;;;;;26.29;45.43;98811.28;2088521;28;20173;-48
2023/08/10 03:00:17;;;;;;;3.60;0.82;;;;;;;26.29;45.27;98817.53;2088197;28;20045;-48
2023/08/10 03:01:18;;;;;;;2.50;0.85;;;;;;;26.29;45.00;98820.25;2081650;28;20049;-48
2023/08/10 03:02:20;;;;;;;2.28;1.00;;;;;;;26.31;45.23;98817.28;2089036;28;20044;-49
2023/08/10 03:03:22;;;;;;;2.05;0.80;;;;;;;26.30;45.03;98815.66;2088976;28;20053;-49
2023/08/10 03:04:24;;;;;;;1.30;0.93;;;;;;;26.30;45.02;98821.09;2086858;28;20113;-48
2023/08/10 03:05:25;;;;;;;2.05;0.93;;;;;;;26.33;45.29;98815.16;2088095;28;20056;-50
2023/08/10 03:06:28;;;;;;;1.17;0.68;;;;;;;26.35;45.18;98814.88;2088658;28;20099;-49
2023/08/10 03:07:29;;;;;;;1.85;0.98;;;;;;;26.33;45.19;98823.31;2088138;28;20056;-49
2023/08/10 03:08:30;;;;;;;3.72;1.00;;;;;;;26.33;45.19;98828.75;2089688;28;20304;-48
2023/08/10 03:09:31;;;;;;;1.48;0.80;;;;;;;26.32;45.08;98824.38;2089031;28;20045;-50
2023/08/10 03:10:33;;;;;;;1.23;1.05;;;;;;;26.33;45.19;98826.03;2089116;28;20060;-48
2023/08/10 03:11:34;;;;;;;2.97;0.98;;;;;;;26.31;45.53;98825.44;2089693;28;20647;-49
2023/08/10 03:12:36;;;;;;;1.27;1.15;;;;;;;26.28;45.05;98824.06;2086903;28;20048;-49
2023/08/10 03:13:40;;;;;;;2.22;0.70;;;;;;;26.32;45.11;98820.81;2086983;28;20113;-48
2023/08/10 03:14:41;;;;;;;3.03;1.40;;;;;;;26.31;45.52;98830.88;2089191;28;20052;-48
2023/08/10 03:15:43;;;;;;;1.52;0.85;;;;;;;26.32;45.16;98834.41;2086848;28;20049;-49
2023/08/10 03:16:43;;;;;;;1.35;0.73;;;;;;;26.33;45.16;98834.19;2086627;28;20294;-49
2023/08/10 03:17:45;;;;;;;1.92;0.98;;;;;;;26.35;45.51;98829.31;2082965;28;20048;-51
2023/08/10 03:18:46;;;;;;;3.17;1.00;;;;;;;26.35;45.08;98826.59;2089665;28;20145;-50
2023/08/10 03:19:50;;;;;;;1.13;0.70;;;;;;;26.34;45.09;98832.28;2090087;28;20064;-50
2023/08/10 03:20:51;;;;;;;1.52;0.88;;;;;;;26.33;45.06;98828.75;2088008;28;20045;-49
2023/08/10 03:21:53;;;;;;;1.85;0.98;;;;;;;26.32;45.23;98823.53;2087940;28;20052;-49
2023/08/10 03:22:54;;;;;;;2.38;1.05;;;;;;;26.34;45.37;98829.56;2089447;28;20164;-49
2023/08/10 03:23:57;;;;;;;3.33;0.93;;;;;;;26.34;45.13;98829.56;2087646;28;20504;-49
2023/08/10 03:24:58;;;;;;;1.13;0.93;;;;;;;26.35;45.30;98833.91;2088183;28;20566;-50
2023/08/10 03:25:59;;;;;;;4.75;1.67;;;;;;;26.33;45.09;98836.91;2091143;28;20038;-49
2023/08/10 03:27:00;;;;;;;1.67;1.02;;;;;;;26.30;45.64;98831.97;2089301;28;20056;-50
2023/08/10 03:28:02;;;;;;;1.45;0.88;;;;;;;26.32;45.54;98832.53;2087424;28;20079;-49
2023/08/10 03:29:05;;;;;;;1.73;1.23;;;;;;;26.32;45.23;98837.97;2090084;28;20052;-49
2023/08/10 03:30:08;;;;;;;1.75;1.20;;;;;;;26.33;45.49;98836.06;2089796;28;20473;-48
2023/08/10 03:31:11;;;;;;;1.10;1.00;;;;;;;26.31;45.48;98839.03;2090497;28;20140;-48
2023/08/10 03:32:13;;;;;;;3.08;1.25;;;;;;;26.28;45.67;98836.81;2089825;28;20491;-54
2023/08/10 03:33:14;;;;;;;2.55;1.00;;;;;;;26.32;45.78;98834.41;2087859;28;20087;-50
2023/08/10 03:34:16;;;;;;;2.38;1.10;;;;;;;26.32;45.55;98837.16;2082866;28;20044;-53
2023/08/10 03:35:17;;;;;;;3.70;1.10;;;;;;;26.30;45.48;98840.94;2085333;28;20049;-53
2023/08/10 03:36:20;;;;;;;2.85;0.85;;;;;;;26.31;45.40;98839.03;2091572;28;20107;-56
2023/08/10 03:37:20;;;;;;;1.15;0.65;;;;;;;26.32;45.90;98834.41;2087684;28;20586;-54
2023/08/10 03:38:22;;;;;;;1.85;0.88;;;;;;;26.30;45.92;98835.50;2090325;28;20055;-52
2023/08/10 03:39:23;;;;;;;3.22;1.10;;;;;;;26.33;45.41;98838.78;2088370;28;20041;-54
2023/08/10 03:40:25;;;;;;;1.58;0.73;;;;;;;26.30;45.85;98830.06;2089800;28;20036;-49
2023/08/10 03:41:26;;;;;;;1.63;1.05;;;;;;;26.30;45.94;98840.13;2086946;28;20053;-50
2023/08/10 03:42:28;;;;;;;1.63;1.17;;;;;;;26.31;45.75;98830.88;2089262;28;20709;-51
2023/08/10 03:43:28;;;;;;;1.67;1.00;;;;;;;26.31;45.50;98839.03;2087259;28;20041;-56
2023/08/10 03:44:32;;;;;;;0.68;0.68;;;;;;;26.29;46.08;98833.03;2089126;28;20417;-52
2023/08/10 03:45:33;;;;;;;1.92;1.17;;;;;;;26.29;45.86;98838.47;2080843;28;20076;-55
2023/08/10 03:46:35;;;;;;;2.55;1.55;;;;;;;26.30;45.93;98834.69;2085205;28;20059;-49
2023/08/10 03:47:36;;;;;;;1.45;0.75;;;;;;;26.30;45.56;98834.69;2078705;28;20060;-55
2023/08/10 03:48:38;;;;;;;2.30;1.58;;;;;;;26.29;45.90;98833.03;2081347;28;20143;-56
2023/08/10 03:49:39;;;;;;;0.85;0.57;;;;;;;26.27;46.13;98836.00;2080416;28;20207;-55
2023/08/10 03:50:41;;;;;;;2.63;0.88;;;;;;;26.26;45.68;98830.81;2080844;28;20059;-53
2023/08/10 03:51:41;;;;;;;1.98;1.05;;;;;;;26.27;46.22;98832.44;2090339;28;20048;-52
2023/08/10 03:52:42;;;;;;;1.77;1.02;;;;;;;26.28;45.93;98836.81;2087892;28;20056;-52
2023/08/10 03:53:44;;;;;;;7.18;1.15;;;;;;;26.28;45.77;98834.94;2086632;28;20229;-53
2023/08/10 03:54:45;;;;;;;2.72;1.08;;;;;;;26.27;46.07;98835.16;2086721;28;20800;-52
2023/08/10 03:55:47;;;;;;;1.80;0.82;;;;;;;26.26;45.77;98836.25;2087804;28;20604;-51
2023/08/10 03:56:48;;;;;;;1.30;1.20;;;;;;;26.30;46.24;98837.41;2089256;28;20045;-52
2023/08/10 03:57:50;;;;;;;2.88;1.17;;;;;;;26.28;45.85;98834.94;2087720;28;20133;-55
2023/08/10 03:58:51;;;;;;;3.80;0.98;;;;;;;26.27;46.16;98836.00;2087940;28;20044;-54
2023/08/10 03:59:54;;;;;;;4.25;1.10;;;;;;;26.29;45.87;98838.47;2083647;28;20092;-55
2023/08/10 04:00:55;;;;;;;2.17;0.80;;;;;;;26.28;46.28;98834.94;2086511;28;20101;-55
2023/08/10 04:01:58;;;;;;;1.13;0.90;;;;;;;26.29;45.70;98844.72;2087236;28;20057;-52
2023/08/10 04:02:58;;;;;;;1.42;0.90;;;;;;;26.30;45.90;98840.13;2086219;28;20056;-49
2023/08/10 04:04:00;;;;;;;1.38;0.90;;;;;;;26.32;45.71;98839.88;2087539;28;20052;-52
2023/08/10 04:05:05;;;;;;;1.77;1.33;;;;;;;26.33;45.86;98849.66;2088000;28;20247;-50
2023/08/10 04:06:07;;;;;;;2.30;1.15;;;;;;;26.30;45.82;98846.38;2087233;28;20098;-51
2023/08/10 04:07:08;;;;;;;3.22;1.02;;;;;;;26.30;46.02;98842.84;2087813;28;20048;-50
2023/08/10 04:08:11;;;;;;;2.17;1.02;;;;;;;26.29;46.22;98843.91;2088344;28;20071;-51
2023/08/10 04:09:11;;;;;;;1.05;0.73;;;;;;;26.29;45.88;98852.06;2087926;28;20053;-54
2023/08/10 04:10:14;;;;;;;1.58;0.90;;;;;;;26.27;46.11;98844.16;2087323;28;20064;-52
2023/08/10 04:11:15;;;;;;;3.80;1.33;;;;;;;26.26;46.36;98853.38;2087913;28;20045;-48
2023/08/10 04:12:16;;;;;;;1.92;1.23;;;;;;;26.28;46.23;98839.53;2087814;28;20989;-52
2023/08/10 04:13:18;;;;;;;1.77;1.02;;;;;;;26.29;46.00;98846.63;2085689;28;20176;-52
2023/08/10 04:14:19;;;;;;;3.00;1.02;;;;;;;26.28;45.89;98858.59;2088263;28;20511;-54
2023/08/10 04:15:22;;;;;;;1.77;1.02;;;;;;;26.28;46.36;98853.13;2087221;28;20064;-54
2023/08/10 04:16:23;;;;;;;2.78;1.00;;;;;;;26.30;46.20;98854.53;2088027;28;20418;-51
2023/08/10 04:17:25;;;;;;;2.42;1.27;;;;;;;26.30;46.35;98861.88;2090327;28;20048;-55
2023/08/10 04:18:25;;;;;;;1.35;1.10;;;;;;;26.28;46.56;98855.84;2084430;28;20080;-49
2023/08/10 04:19:27;;;;;;;3.58;1.10;;;;;;;26.29;46.00;98860.22;2090046;28;20053;-55
2023/08/10 04:20:29;;;;;;;5.70;1.50;;;;;;;26.28;46.33;98867.56;2087572;28;20051;-54
2023/08/10 04:21:30;;;;;;;1.58;0.98;;;;;;;26.25;46.22;98862.63;2081945;28;20052;-53
2023/08/10 04:22:32;;;;;;;3.72;1.25;;;;;;;26.26;46.29;98866.16;2082446;28;20392;-52
2023/08/10 04:23:33;;;;;;;3.22;1.60;;;;;;;26.27;46.39;98867.78;2086725;28;20052;-54
2023/08/10 04:24:34;;;;;;;2.30;0.95;;;;;;;26.27;46.58;98862.34;2089284;28;20056;-51
2023/08/10 04:25:35;;;;;;;1.65;1.25;;;;;;;26.27;46.23;98865.06;2089237;28;20071;-50
2023/08/10 04:26:37;;;;;;;3.17;1.50;;;;;;;26.27;46.56;98862.34;2087496;28;20079;-51
2023/08/10 04:27:38;;;;;;;2.85;0.98;;;;;;;26.26;46.19;98866.97;2090258;28;20083;-51
2023/08/10 04:28:41;;;;;;;2.63;1.05;;;;;;;26.29;46.31;98868.38;2087666;28;20087;-51
2023/08/10 04:29:43;;;;;;;3.83;1.02;;;;;;;26.30;46.28;98870.03;2088949;28;20040;-51
2023/08/10 04:30:47;;;;;;;4.03;1.27;;;;;;;26.30;46.29;98872.75;2080868;28;20048;-52
2023/08/10 04:31:47;;;;;;;5.53;1.58;;;;;;;26.28;46.44;98875.72;2079792;28;20144;-56
2023/08/10 04:32:49;;;;;;;1.58;1.17;;;;;;;26.28;46.15;98869.47;2079077;28;20220;-54
2023/08/10 04:33:50;;;;;;;1.73;1.27;;;;;;;26.29;46.39;98873.81;2079577;28;20049;-55
2023/08/10 04:34:53;;;;;;;3.42;1.35;;;;;;;26.29;46.27;98869.19;2075639;28;20057;-54
2023/08/10 04:35:54;;;;;;;2.35;1.00;;;;;;;26.29;46.49;98871.09;2074358;28;20079;-54
2023/08/10 04:36:55;;;;;;;1.90;0.98;;;;;;;26.28;46.50;98866.75;2081694;28;20423;-52
2023/08/10 04:37:56;;;;;;;3.10;1.38;;;;;;;26.29;46.37;98877.34;2080131;28;20041;-49
2023/08/10 04:38:58;;;;;;;6.88;1.25;;;;;;;26.28;46.02;98874.91;2080073;28;20037;-57
2023/08/10 04:39:59;;;;;;;3.90;1.50;;;;;;;26.28;46.46;98874.91;2079207;28;20079;-55
2023/08/10 04:41:01;;;;;;;3.35;1.38;;;;;;;26.27;46.58;98875.94;2076445;28;20037;-53
2023/08/10 04:42:02;;;;;;;1.13;0.98;;;;;;;26.27;46.24;98870.50;2079343;28;20836;-53
2023/08/10 04:43:04;;;;;;;3.15;1.10;;;;;;;26.29;46.23;98871.09;2079547;28;20049;-54
2023/08/10 04:44:05;;;;;;;1.73;1.05;;;;;;;26.30;46.35;98872.75;2080609;28;20140;-53
2023/08/10 04:45:09;;;;;;;2.78;1.42;;;;;;;26.29;46.15;98873.81;2081801;28;20045;-54
2023/08/10 04:46:11;;;;;;;5.85;1.13;;;;;;;26.29;46.52;98871.09;2081598;28;20139;-54
2023/08/10 04:47:14;;;;;;;5.78;1.25;;;;;;;26.26;46.15;98866.97;2079274;28;20088;-51
2023/08/10 04:48:15;;;;;;;3.65;1.77;;;;;;;26.25;46.27;98872.69;2087595;28;20601;-51
2023/08/10 04:49:17;;;;;;;2.85;1.05;;;;;;;26.27;46.60;98870.50;2082416;28;20049;-52
2023/08/10 04:50:18;;;;;;;2.95;1.83;;;;;;;26.26;46.48;98866.16;2079455;28;20060;-54
2023/08/10 04:51:19;;;;;;;1.45;1.27;;;;;;;26.27;46.28;98868.63;2086828;28;20072;-51
2023/08/10 04:52:20;;;;;;;2.28;1.05;;;;;;;26.29;46.25;98876.53;2086991;28;20529;-55
2023/08/10 04:53:22;;;;;;;1.77;1.27;;;;;;;26.27;46.75;98867.78;2085879;28;20048;-53